sensor_id;sensor_type;location;lat;lon;timestamp;temperature;humidity
21734;DHT22;11029;47.820;10.534;2023-04-06T00:00:14;-1.80;59.70
21734;DHT22;11029;47.820;10.534;2023-04-06T00:02:41;-1.90;59.60
21734;DHT22;11029;47.820;10.534;2023-04-06T00:05:08;-1.90;59.80
21734;DHT22;11029;47.820;10.534;2023-04-06T00:07:34;-1.90;60.00
21734;DHT22;11029;47.820;10.534;2023-04-06T00:10:02;-1.90;60.50
21734;DHT22;11029;47.820;10.534;2023-04-06T00:12:29;-1.90;60.60
21734;DHT22;11029;47.820;10.534;2023-04-06T00:14:55;-2.00;61.10
21734;DHT22;11029;47.820;10.534;2023-04-06T00:17:22;-2.10;60.20
21734;DHT22;11029;47.820;10.534;2023-04-06T00:19:49;-2.10;60.40
21734;DHT22;11029;47.820;10.534;2023-04-06T00:22:15;-2.10;60.00
21734;DHT22;11029;47.820;10.534;2023-04-06T00:24:42;-2.20;60.20
21734;DHT22;11029;47.820;10.534;2023-04-06T00:27:09;-2.30;60.70
21734;DHT22;11029;47.820;10.534;2023-04-06T00:29:36;-2.40;61.00
21734;DHT22;11029;47.820;10.534;2023-04-06T00:32:03;-2.30;61.00
21734;DHT22;11029;47.820;10.534;2023-04-06T00:34:30;-2.30;61.20
21734;DHT22;11029;47.820;10.534;2023-04-06T00:36:56;-2.20;61.00
21734;DHT22;11029;47.820;10.534;2023-04-06T00:39:23;-2.30;60.80
21734;DHT22;11029;47.820;10.534;2023-04-06T00:41:51;-2.20;60.90
21734;DHT22;11029;47.820;10.534;2023-04-06T00:44:19;-2.20;60.70
21734;DHT22;11029;47.820;10.534;2023-04-06T00:46:46;-2.20;61.20
21734;DHT22;11029;47.820;10.534;2023-04-06T00:49:13;-2.10;60.50
21734;DHT22;11029;47.820;10.534;2023-04-06T00:51:40;-2.00;59.80
21734;DHT22;11029;47.820;10.534;2023-04-06T00:54:07;-2.00;60.10
21734;DHT22;11029;47.820;10.534;2023-04-06T00:56:35;-2.00;60.40
21734;DHT22;11029;47.820;10.534;2023-04-06T00:59:02;-2.10;60.80
21734;DHT22;11029;47.820;10.534;2023-04-06T01:01:29;-1.90;61.30
21734;DHT22;11029;47.820;10.534;2023-04-06T01:04:03;-2.00;62.40
21734;DHT22;11029;47.820;10.534;2023-04-06T01:06:36;-2.00;62.80
21734;DHT22;11029;47.820;10.534;2023-04-06T01:09:03;-1.80;62.80
21734;DHT22;11029;47.820;10.534;2023-04-06T01:11:30;-1.80;62.90
21734;DHT22;11029;47.820;10.534;2023-04-06T01:13:58;-1.80;63.20
21734;DHT22;11029;47.820;10.534;2023-04-06T01:16:38;-1.70;62.70
21734;DHT22;11029;47.820;10.534;2023-04-06T01:19:09;-1.80;62.70
21734;DHT22;11029;47.820;10.534;2023-04-06T01:21:41;-1.80;63.10
21734;DHT22;11029;47.820;10.534;2023-04-06T01:24:37;-1.90;63.40
21734;DHT22;11029;47.820;10.534;2023-04-06T01:27:22;-2.00;63.40
21734;DHT22;11029;47.820;10.534;2023-04-06T01:29:49;-2.00;62.60
21734;DHT22;11029;47.820;10.534;2023-04-06T01:32:27;-2.00;63.80
21734;DHT22;11029;47.820;10.534;2023-04-06T01:34:54;-1.90;63.40
21734;DHT22;11029;47.820;10.534;2023-04-06T01:37:21;-1.80;63.90
21734;DHT22;11029;47.820;10.534;2023-04-06T01:39:51;-1.70;63.30
21734;DHT22;11029;47.820;10.534;2023-04-06T01:42:26;-1.70;62.60
21734;DHT22;11029;47.820;10.534;2023-04-06T01:44:54;-1.90;63.30
21734;DHT22;11029;47.820;10.534;2023-04-06T01:47:21;-1.90;63.40
21734;DHT22;11029;47.820;10.534;2023-04-06T01:49:48;-1.80;62.80
21734;DHT22;11029;47.820;10.534;2023-04-06T01:52:15;-1.80;62.60
21734;DHT22;11029;47.820;10.534;2023-04-06T01:55:02;-1.90;62.50
21734;DHT22;11029;47.820;10.534;2023-04-06T01:57:58;-2.10;63.50
21734;DHT22;11029;47.820;10.534;2023-04-06T02:00:37;-2.10;63.50
21734;DHT22;11029;47.820;10.534;2023-04-06T02:03:05;-2.10;63.20
21734;DHT22;11029;47.820;10.534;2023-04-06T02:05:33;-2.10;63.90
21734;DHT22;11029;47.820;10.534;2023-04-06T02:08:15;-2.10;63.60
21734;DHT22;11029;47.820;10.534;2023-04-06T02:10:42;-2.20;64.00
21734;DHT22;11029;47.820;10.534;2023-04-06T02:13:17;-2.30;64.20
21734;DHT22;11029;47.820;10.534;2023-04-06T02:15:48;-2.40;64.00
21734;DHT22;11029;47.820;10.534;2023-04-06T02:18:15;-2.30;64.10
21734;DHT22;11029;47.820;10.534;2023-04-06T02:20:44;-2.20;62.80
21734;DHT22;11029;47.820;10.534;2023-04-06T02:23:12;-2.30;63.00
21734;DHT22;11029;47.820;10.534;2023-04-06T02:25:39;-2.40;63.90
21734;DHT22;11029;47.820;10.534;2023-04-06T02:28:06;-2.40;63.90
21734;DHT22;11029;47.820;10.534;2023-04-06T02:30:34;-2.50;64.10
21734;DHT22;11029;47.820;10.534;2023-04-06T02:33:01;-2.50;64.30
21734;DHT22;11029;47.820;10.534;2023-04-06T02:35:34;-2.50;64.30
21734;DHT22;11029;47.820;10.534;2023-04-06T02:38:01;-2.40;64.20
21734;DHT22;11029;47.820;10.534;2023-04-06T02:40:28;-2.40;63.40
21734;DHT22;11029;47.820;10.534;2023-04-06T02:42:57;-2.50;64.40
21734;DHT22;11029;47.820;10.534;2023-04-06T02:45:29;-2.50;64.10
21734;DHT22;11029;47.820;10.534;2023-04-06T02:47:56;-2.40;64.10
21734;DHT22;11029;47.820;10.534;2023-04-06T02:50:24;-2.50;64.50
21734;DHT22;11029;47.820;10.534;2023-04-06T02:52:58;-2.60;64.10
21734;DHT22;11029;47.820;10.534;2023-04-06T02:55:24;-2.80;64.60
21734;DHT22;11029;47.820;10.534;2023-04-06T02:57:51;-2.90;65.30
21734;DHT22;11029;47.820;10.534;2023-04-06T03:00:22;-2.90;65.00
21734;DHT22;11029;47.820;10.534;2023-04-06T03:02:49;-3.00;64.00
21734;DHT22;11029;47.820;10.534;2023-04-06T03:05:17;-3.00;63.90
21734;DHT22;11029;47.820;10.534;2023-04-06T03:07:45;-3.00;63.70
21734;DHT22;11029;47.820;10.534;2023-04-06T03:10:27;-3.00;63.10
21734;DHT22;11029;47.820;10.534;2023-04-06T03:12:54;-3.00;63.30
21734;DHT22;11029;47.820;10.534;2023-04-06T03:15:24;-3.00;63.70
21734;DHT22;11029;47.820;10.534;2023-04-06T03:17:57;-2.90;63.50
21734;DHT22;11029;47.820;10.534;2023-04-06T03:20:37;-2.90;63.20
21734;DHT22;11029;47.820;10.534;2023-04-06T03:23:04;-2.90;62.30
21734;DHT22;11029;47.820;10.534;2023-04-06T03:25:35;-2.90;62.70
21734;DHT22;11029;47.820;10.534;2023-04-06T03:28:05;-2.90;62.70
21734;DHT22;11029;47.820;10.534;2023-04-06T03:30:36;-3.00;61.90
21734;DHT22;11029;47.820;10.534;2023-04-06T03:33:03;-3.10;63.00
21734;DHT22;11029;47.820;10.534;2023-04-06T03:35:34;-3.20;64.10
21734;DHT22;11029;47.820;10.534;2023-04-06T03:38:04;-3.20;65.30
21734;DHT22;11029;47.820;10.534;2023-04-06T03:40:31;-3.10;64.90
21734;DHT22;11029;47.820;10.534;2023-04-06T03:42:58;-3.00;64.00
21734;DHT22;11029;47.820;10.534;2023-04-06T03:45:25;-3.10;64.00
21734;DHT22;11029;47.820;10.534;2023-04-06T03:47:51;-3.10;63.90
21734;DHT22;11029;47.820;10.534;2023-04-06T03:50:19;-3.00;63.50
21734;DHT22;11029;47.820;10.534;2023-04-06T03:52:46;-3.10;63.00
21734;DHT22;11029;47.820;10.534;2023-04-06T03:55:12;-3.10;63.80
21734;DHT22;11029;47.820;10.534;2023-04-06T03:57:39;-3.10;63.40
21734;DHT22;11029;47.820;10.534;2023-04-06T04:00:06;-3.20;63.30
21734;DHT22;11029;47.820;10.534;2023-04-06T04:02:39;-3.10;62.80
21734;DHT22;11029;47.820;10.534;2023-04-06T04:05:07;-3.10;62.60
21734;DHT22;11029;47.820;10.534;2023-04-06T04:07:36;-3.00;63.10
21734;DHT22;11029;47.820;10.534;2023-04-06T04:10:03;-3.10;63.20
21734;DHT22;11029;47.820;10.534;2023-04-06T04:12:31;-3.00;63.70
21734;DHT22;11029;47.820;10.534;2023-04-06T04:14:58;-2.90;64.10
21734;DHT22;11029;47.820;10.534;2023-04-06T04:17:25;-2.70;63.60
21734;DHT22;11029;47.820;10.534;2023-04-06T04:19:52;-2.80;63.70
21734;DHT22;11029;47.820;10.534;2023-04-06T04:22:18;-2.90;63.90
21734;DHT22;11029;47.820;10.534;2023-04-06T04:24:45;-3.00;65.10
21734;DHT22;11029;47.820;10.534;2023-04-06T04:27:12;-2.70;65.20
21734;DHT22;11029;47.820;10.534;2023-04-06T04:29:40;-2.70;64.20
21734;DHT22;11029;47.820;10.534;2023-04-06T04:32:09;-2.60;64.40
21734;DHT22;11029;47.820;10.534;2023-04-06T04:34:37;-2.60;64.10
21734;DHT22;11029;47.820;10.534;2023-04-06T04:37:09;-2.60;64.30
21734;DHT22;11029;47.820;10.534;2023-04-06T04:39:49;-2.60;64.90
21734;DHT22;11029;47.820;10.534;2023-04-06T04:42:17;-2.40;64.60
21734;DHT22;11029;47.820;10.534;2023-04-06T04:44:49;-2.40;64.60
21734;DHT22;11029;47.820;10.534;2023-04-06T04:47:26;-2.40;64.10
21734;DHT22;11029;47.820;10.534;2023-04-06T04:49:53;-2.40;64.10
21734;DHT22;11029;47.820;10.534;2023-04-06T04:52:22;-2.30;64.50
21734;DHT22;11029;47.820;10.534;2023-04-06T04:54:58;-2.30;64.50
21734;DHT22;11029;47.820;10.534;2023-04-06T04:57:27;-2.20;63.90
21734;DHT22;11029;47.820;10.534;2023-04-06T04:59:54;-2.20;63.80
21734;DHT22;11029;47.820;10.534;2023-04-06T05:02:23;-2.20;63.90
21734;DHT22;11029;47.820;10.534;2023-04-06T05:04:59;-2.20;64.70
21734;DHT22;11029;47.820;10.534;2023-04-06T05:07:28;-2.10;64.20
21734;DHT22;11029;47.820;10.534;2023-04-06T05:09:57;-2.00;64.50
21734;DHT22;11029;47.820;10.534;2023-04-06T05:12:26;-1.90;64.00
21734;DHT22;11029;47.820;10.534;2023-04-06T05:15:03;-1.90;64.10
21734;DHT22;11029;47.820;10.534;2023-04-06T05:17:30;-1.80;63.80
21734;DHT22;11029;47.820;10.534;2023-04-06T05:19:57;-1.80;63.60
21734;DHT22;11029;47.820;10.534;2023-04-06T05:22:25;-1.70;63.50
21734;DHT22;11029;47.820;10.534;2023-04-06T05:25:04;-1.80;63.70
21734;DHT22;11029;47.820;10.534;2023-04-06T05:27:32;-1.80;63.80
21734;DHT22;11029;47.820;10.534;2023-04-06T05:30:03;-1.70;64.40
21734;DHT22;11029;47.820;10.534;2023-04-06T05:32:35;-1.70;65.00
21734;DHT22;11029;47.820;10.534;2023-04-06T05:35:02;-1.60;65.30
21734;DHT22;11029;47.820;10.534;2023-04-06T05:37:29;-1.60;64.70
21734;DHT22;11029;47.820;10.534;2023-04-06T05:39:56;-1.50;64.90
21734;DHT22;11029;47.820;10.534;2023-04-06T05:42:23;-1.40;64.50
21734;DHT22;11029;47.820;10.534;2023-04-06T05:44:55;-1.50;64.70
21734;DHT22;11029;47.820;10.534;2023-04-06T05:47:22;-1.40;64.60
21734;DHT22;11029;47.820;10.534;2023-04-06T05:49:55;-1.30;64.70
21734;DHT22;11029;47.820;10.534;2023-04-06T05:52:31;-1.20;64.30
21734;DHT22;11029;47.820;10.534;2023-04-06T05:54:58;-1.20;64.40
21734;DHT22;11029;47.820;10.534;2023-04-06T05:57:25;-1.10;64.60
21734;DHT22;11029;47.820;10.534;2023-04-06T05:59:53;-1.00;64.20
21734;DHT22;11029;47.820;10.534;2023-04-06T06:02:22;-1.00;64.50
21734;DHT22;11029;47.820;10.534;2023-04-06T06:04:51;-0.80;64.20
21734;DHT22;11029;47.820;10.534;2023-04-06T06:07:18;-0.70;64.10
21734;DHT22;11029;47.820;10.534;2023-04-06T06:09:56;-0.60;63.90
21734;DHT22;11029;47.820;10.534;2023-04-06T06:12:28;-0.50;63.70
21734;DHT22;11029;47.820;10.534;2023-04-06T06:14:55;-0.40;63.00
21734;DHT22;11029;47.820;10.534;2023-04-06T06:17:24;-0.30;63.40
21734;DHT22;11029;47.820;10.534;2023-04-06T06:19:51;-0.20;63.20
21734;DHT22;11029;47.820;10.534;2023-04-06T06:22:18;-0.20;63.00
21734;DHT22;11029;47.820;10.534;2023-04-06T06:24:46;-0.10;63.70
21734;DHT22;11029;47.820;10.534;2023-04-06T06:27:15;0.00;64.10
21734;DHT22;11029;47.820;10.534;2023-04-06T06:29:42;0.00;63.60
21734;DHT22;11029;47.820;10.534;2023-04-06T06:32:10;0.00;64.00
21734;DHT22;11029;47.820;10.534;2023-04-06T06:34:38;0.20;63.60
21734;DHT22;11029;47.820;10.534;2023-04-06T06:37:07;0.20;62.80
21734;DHT22;11029;47.820;10.534;2023-04-06T06:39:36;0.20;63.70
21734;DHT22;11029;47.820;10.534;2023-04-06T06:42:03;0.10;63.30
21734;DHT22;11029;47.820;10.534;2023-04-06T06:44:47;0.40;63.40
21734;DHT22;11029;47.820;10.534;2023-04-06T06:47:13;0.40;62.00
21734;DHT22;11029;47.820;10.534;2023-04-06T06:49:40;0.30;61.30
21734;DHT22;11029;47.820;10.534;2023-04-06T06:52:08;0.40;61.20
21734;DHT22;11029;47.820;10.534;2023-04-06T06:54:34;0.40;62.10
21734;DHT22;11029;47.820;10.534;2023-04-06T06:57:01;0.50;61.80
21734;DHT22;11029;47.820;10.534;2023-04-06T06:59:28;0.50;62.80
21734;DHT22;11029;47.820;10.534;2023-04-06T07:01:55;0.50;62.60
21734;DHT22;11029;47.820;10.534;2023-04-06T07:04:21;0.50;62.20
21734;DHT22;11029;47.820;10.534;2023-04-06T07:06:49;0.60;61.80
21734;DHT22;11029;47.820;10.534;2023-04-06T07:09:17;0.90;60.30
21734;DHT22;11029;47.820;10.534;2023-04-06T07:11:44;1.30;60.60
21734;DHT22;11029;47.820;10.534;2023-04-06T07:14:12;1.60;60.50
21734;DHT22;11029;47.820;10.534;2023-04-06T07:16:38;2.00;59.80
21734;DHT22;11029;47.820;10.534;2023-04-06T07:19:05;2.10;57.20
21734;DHT22;11029;47.820;10.534;2023-04-06T07:21:32;1.60;58.00
21734;DHT22;11029;47.820;10.534;2023-04-06T07:23:59;1.80;58.40
21734;DHT22;11029;47.820;10.534;2023-04-06T07:26:26;1.60;57.80
21734;DHT22;11029;47.820;10.534;2023-04-06T07:28:52;1.50;58.50
21734;DHT22;11029;47.820;10.534;2023-04-06T07:31:22;1.90;58.90
21734;DHT22;11029;47.820;10.534;2023-04-06T07:33:48;2.50;57.70
21734;DHT22;11029;47.820;10.534;2023-04-06T07:36:17;2.90;56.60
21734;DHT22;11029;47.820;10.534;2023-04-06T07:38:44;3.30;55.40
21734;DHT22;11029;47.820;10.534;2023-04-06T07:41:12;3.50;54.40
21734;DHT22;11029;47.820;10.534;2023-04-06T07:43:39;3.70;53.60
21734;DHT22;11029;47.820;10.534;2023-04-06T07:46:06;3.90;53.00
21734;DHT22;11029;47.820;10.534;2023-04-06T07:48:33;4.00;52.50
21734;DHT22;11029;47.820;10.534;2023-04-06T07:51:02;4.10;52.00
21734;DHT22;11029;47.820;10.534;2023-04-06T07:53:29;4.30;51.60
21734;DHT22;11029;47.820;10.534;2023-04-06T07:55:58;4.60;50.90
21734;DHT22;11029;47.820;10.534;2023-04-06T07:58:25;4.50;50.80
21734;DHT22;11029;47.820;10.534;2023-04-06T08:00:52;4.80;51.00
21734;DHT22;11029;47.820;10.534;2023-04-06T08:03:19;5.20;51.30
21734;DHT22;11029;47.820;10.534;2023-04-06T08:05:47;5.60;51.10
21734;DHT22;11029;47.820;10.534;2023-04-06T08:08:14;6.00;50.90
21734;DHT22;11029;47.820;10.534;2023-04-06T08:10:41;6.40;49.60
21734;DHT22;11029;47.820;10.534;2023-04-06T08:13:07;6.60;48.80
21734;DHT22;11029;47.820;10.534;2023-04-06T08:15:34;6.90;48.80
21734;DHT22;11029;47.820;10.534;2023-04-06T08:18:01;6.70;45.50
21734;DHT22;11029;47.820;10.534;2023-04-06T08:20:28;6.10;43.60
21734;DHT22;11029;47.820;10.534;2023-04-06T08:22:55;5.80;43.10
21734;DHT22;11029;47.820;10.534;2023-04-06T08:25:21;5.50;44.90
21734;DHT22;11029;47.820;10.534;2023-04-06T08:27:48;5.20;45.00
21734;DHT22;11029;47.820;10.534;2023-04-06T08:30:15;4.90;44.50
21734;DHT22;11029;47.820;10.534;2023-04-06T08:32:42;5.10;43.70
21734;DHT22;11029;47.820;10.534;2023-04-06T08:35:09;5.10;43.00
21734;DHT22;11029;47.820;10.534;2023-04-06T08:37:35;5.00;42.60
21734;DHT22;11029;47.820;10.534;2023-04-06T08:40:02;5.10;43.30
21734;DHT22;11029;47.820;10.534;2023-04-06T08:42:32;5.30;43.70
21734;DHT22;11029;47.820;10.534;2023-04-06T08:45:00;5.40;42.20
21734;DHT22;11029;47.820;10.534;2023-04-06T08:47:27;5.50;41.80
21734;DHT22;11029;47.820;10.534;2023-04-06T08:49:54;5.60;40.20
21734;DHT22;11029;47.820;10.534;2023-04-06T08:52:22;5.60;42.70
21734;DHT22;11029;47.820;10.534;2023-04-06T08:54:49;5.80;42.30
21734;DHT22;11029;47.820;10.534;2023-04-06T08:57:16;5.90;41.90
21734;DHT22;11029;47.820;10.534;2023-04-06T08:59:45;6.00;41.80
21734;DHT22;11029;47.820;10.534;2023-04-06T09:02:17;6.00;41.70
21734;DHT22;11029;47.820;10.534;2023-04-06T09:04:46;6.10;40.70
21734;DHT22;11029;47.820;10.534;2023-04-06T09:07:15;6.30;41.40
21734;DHT22;11029;47.820;10.534;2023-04-06T09:09:42;6.30;42.10
21734;DHT22;11029;47.820;10.534;2023-04-06T09:12:27;6.30;40.70
21734;DHT22;11029;47.820;10.534;2023-04-06T09:14:55;6.20;39.90
21734;DHT22;11029;47.820;10.534;2023-04-06T09:17:27;6.30;41.20
21734;DHT22;11029;47.820;10.534;2023-04-06T09:19:55;6.40;39.40
21734;DHT22;11029;47.820;10.534;2023-04-06T09:22:22;6.60;40.60
21734;DHT22;11029;47.820;10.534;2023-04-06T09:24:52;6.80;39.90
21734;DHT22;11029;47.820;10.534;2023-04-06T09:27:33;6.70;39.10
21734;DHT22;11029;47.820;10.534;2023-04-06T09:30:18;6.70;39.20
21734;DHT22;11029;47.820;10.534;2023-04-06T09:32:49;6.80;41.40
21734;DHT22;11029;47.820;10.534;2023-04-06T09:35:17;6.80;42.00
21734;DHT22;11029;47.820;10.534;2023-04-06T09:37:44;6.70;41.40
21734;DHT22;11029;47.820;10.534;2023-04-06T09:40:12;6.50;42.20
21734;DHT22;11029;47.820;10.534;2023-04-06T09:42:45;6.60;43.10
21734;DHT22;11029;47.820;10.534;2023-04-06T09:45:13;6.40;43.70
21734;DHT22;11029;47.820;10.534;2023-04-06T09:47:43;6.20;42.60
21734;DHT22;11029;47.820;10.534;2023-04-06T09:50:12;6.00;43.00
21734;DHT22;11029;47.820;10.534;2023-04-06T09:52:50;5.90;44.30
21734;DHT22;11029;47.820;10.534;2023-04-06T09:55:26;6.00;44.00
21734;DHT22;11029;47.820;10.534;2023-04-06T09:58:05;6.20;43.20
21734;DHT22;11029;47.820;10.534;2023-04-06T10:00:44;6.50;42.50
21734;DHT22;11029;47.820;10.534;2023-04-06T10:05:50;6.60;40.10
21734;DHT22;11029;47.820;10.534;2023-04-06T10:08:19;6.60;39.70
21734;DHT22;11029;47.820;10.534;2023-04-06T10:10:50;6.50;40.70
21734;DHT22;11029;47.820;10.534;2023-04-06T10:13:18;6.60;40.60
21734;DHT22;11029;47.820;10.534;2023-04-06T10:15:45;7.10;41.90
21734;DHT22;11029;47.820;10.534;2023-04-06T10:18:13;7.30;41.60
21734;DHT22;11029;47.820;10.534;2023-04-06T10:23:46;7.30;38.20
21734;DHT22;11029;47.820;10.534;2023-04-06T10:26:16;7.20;42.00
21734;DHT22;11029;47.820;10.534;2023-04-06T10:28:45;6.80;41.10
21734;DHT22;11029;47.820;10.534;2023-04-06T10:31:12;6.40;41.50
21734;DHT22;11029;47.820;10.534;2023-04-06T10:33:39;6.20;41.50
21734;DHT22;11029;47.820;10.534;2023-04-06T10:36:14;6.20;41.20
21734;DHT22;11029;47.820;10.534;2023-04-06T10:38:42;6.60;41.40
21734;DHT22;11029;47.820;10.534;2023-04-06T10:41:11;7.10;41.80
21734;DHT22;11029;47.820;10.534;2023-04-06T10:43:40;7.40;40.60
21734;DHT22;11029;47.820;10.534;2023-04-06T10:46:09;7.40;38.90
21734;DHT22;11029;47.820;10.534;2023-04-06T10:48:40;7.20;39.90
21734;DHT22;11029;47.820;10.534;2023-04-06T10:51:10;7.10;39.50
21734;DHT22;11029;47.820;10.534;2023-04-06T10:53:37;7.30;39.10
21734;DHT22;11029;47.820;10.534;2023-04-06T10:56:13;7.50;37.10
21734;DHT22;11029;47.820;10.534;2023-04-06T10:58:51;7.70;37.30
21734;DHT22;11029;47.820;10.534;2023-04-06T11:01:20;7.90;40.40
21734;DHT22;11029;47.820;10.534;2023-04-06T11:03:50;7.80;38.00
21734;DHT22;11029;47.820;10.534;2023-04-06T11:06:19;7.40;38.90
21734;DHT22;11029;47.820;10.534;2023-04-06T11:08:46;7.20;39.50
21734;DHT22;11029;47.820;10.534;2023-04-06T11:11:15;7.20;38.60
21734;DHT22;11029;47.820;10.534;2023-04-06T11:13:44;7.40;38.60
21734;DHT22;11029;47.820;10.534;2023-04-06T11:16:29;7.60;38.00
21734;DHT22;11029;47.820;10.534;2023-04-06T11:19:05;7.70;37.80
21734;DHT22;11029;47.820;10.534;2023-04-06T11:21:47;7.90;39.00
21734;DHT22;11029;47.820;10.534;2023-04-06T11:24:24;7.90;36.90
21734;DHT22;11029;47.820;10.534;2023-04-06T11:26:54;7.70;40.30
21734;DHT22;11029;47.820;10.534;2023-04-06T11:29:23;7.50;40.20
21734;DHT22;11029;47.820;10.534;2023-04-06T11:31:52;7.30;39.20
21734;DHT22;11029;47.820;10.534;2023-04-06T11:34:21;7.20;38.50
21734;DHT22;11029;47.820;10.534;2023-04-06T11:36:54;7.30;36.20
21734;DHT22;11029;47.820;10.534;2023-04-06T11:39:21;7.60;37.00
21734;DHT22;11029;47.820;10.534;2023-04-06T11:41:54;8.00;39.00
21734;DHT22;11029;47.820;10.534;2023-04-06T11:44:32;7.90;38.00
21734;DHT22;11029;47.820;10.534;2023-04-06T11:47:04;7.80;38.60
21734;DHT22;11029;47.820;10.534;2023-04-06T11:49:31;7.80;39.50
21734;DHT22;11029;47.820;10.534;2023-04-06T11:52:00;7.90;37.40
21734;DHT22;11029;47.820;10.534;2023-04-06T11:54:37;8.20;38.30
21734;DHT22;11029;47.820;10.534;2023-04-06T11:57:05;8.40;38.80
21734;DHT22;11029;47.820;10.534;2023-04-06T11:59:32;8.60;40.10
21734;DHT22;11029;47.820;10.534;2023-04-06T12:02:01;9.10;37.60
21734;DHT22;11029;47.820;10.534;2023-04-06T12:04:29;9.20;35.20
21734;DHT22;11029;47.820;10.534;2023-04-06T12:06:56;9.40;34.40
21734;DHT22;11029;47.820;10.534;2023-04-06T12:09:22;9.50;34.00
21734;DHT22;11029;47.820;10.534;2023-04-06T12:11:49;9.60;34.70
21734;DHT22;11029;47.820;10.534;2023-04-06T12:14:16;9.20;36.10
21734;DHT22;11029;47.820;10.534;2023-04-06T12:16:43;8.80;36.30
21734;DHT22;11029;47.820;10.534;2023-04-06T12:19:10;8.70;39.60
21734;DHT22;11029;47.820;10.534;2023-04-06T12:21:37;8.70;37.20
21734;DHT22;11029;47.820;10.534;2023-04-06T12:24:04;9.00;37.60
21734;DHT22;11029;47.820;10.534;2023-04-06T12:26:32;8.90;35.90
21734;DHT22;11029;47.820;10.534;2023-04-06T12:28:59;8.80;34.70
21734;DHT22;11029;47.820;10.534;2023-04-06T12:31:35;8.80;34.80
21734;DHT22;11029;47.820;10.534;2023-04-06T12:34:03;9.00;36.50
21734;DHT22;11029;47.820;10.534;2023-04-06T12:36:30;9.20;35.60
21734;DHT22;11029;47.820;10.534;2023-04-06T12:38:57;9.30;35.80
21734;DHT22;11029;47.820;10.534;2023-04-06T12:41:24;9.20;38.50
21734;DHT22;11029;47.820;10.534;2023-04-06T12:43:51;9.20;35.90
21734;DHT22;11029;47.820;10.534;2023-04-06T12:46:18;9.10;34.30
21734;DHT22;11029;47.820;10.534;2023-04-06T12:48:45;9.50;35.20
21734;DHT22;11029;47.820;10.534;2023-04-06T12:51:12;9.70;33.30
21734;DHT22;11029;47.820;10.534;2023-04-06T12:53:39;10.30;34.60
21734;DHT22;11029;47.820;10.534;2023-04-06T12:56:13;10.60;34.70
21734;DHT22;11029;47.820;10.534;2023-04-06T12:58:41;10.50;34.00
21734;DHT22;11029;47.820;10.534;2023-04-06T13:01:08;10.10;33.80
21734;DHT22;11029;47.820;10.534;2023-04-06T13:03:35;9.80;34.10
21734;DHT22;11029;47.820;10.534;2023-04-06T13:06:02;9.60;33.90
21734;DHT22;11029;47.820;10.534;2023-04-06T13:08:29;9.70;34.70
21734;DHT22;11029;47.820;10.534;2023-04-06T13:10:56;10.10;33.50
21734;DHT22;11029;47.820;10.534;2023-04-06T13:13:27;10.80;31.40
21734;DHT22;11029;47.820;10.534;2023-04-06T13:16:06;10.50;32.90
21734;DHT22;11029;47.820;10.534;2023-04-06T13:18:33;10.20;35.50
21734;DHT22;11029;47.820;10.534;2023-04-06T13:21:01;10.20;34.60
21734;DHT22;11029;47.820;10.534;2023-04-06T13:23:27;10.20;33.70
21734;DHT22;11029;47.820;10.534;2023-04-06T13:26:02;10.00;35.50
21734;DHT22;11029;47.820;10.534;2023-04-06T13:28:30;10.30;33.90
21734;DHT22;11029;47.820;10.534;2023-04-06T13:30:59;10.70;31.40
21734;DHT22;11029;47.820;10.534;2023-04-06T13:33:27;11.30;32.00
21734;DHT22;11029;47.820;10.534;2023-04-06T13:35:54;11.10;33.50
21734;DHT22;11029;47.820;10.534;2023-04-06T13:38:21;10.50;34.20
21734;DHT22;11029;47.820;10.534;2023-04-06T13:40:49;10.70;36.20
21734;DHT22;11029;47.820;10.534;2023-04-06T13:43:16;10.40;33.90
21734;DHT22;11029;47.820;10.534;2023-04-06T13:45:53;10.40;32.60
21734;DHT22;11029;47.820;10.534;2023-04-06T13:48:24;11.00;31.60
21734;DHT22;11029;47.820;10.534;2023-04-06T13:50:52;11.60;31.50
21734;DHT22;11029;47.820;10.534;2023-04-06T13:53:19;11.60;34.30
21734;DHT22;11029;47.820;10.534;2023-04-06T13:55:53;10.90;31.30
21734;DHT22;11029;47.820;10.534;2023-04-06T13:58:20;10.80;33.00
21734;DHT22;11029;47.820;10.534;2023-04-06T14:00:47;11.00;32.00
21734;DHT22;11029;47.820;10.534;2023-04-06T14:03:13;10.50;32.10
21734;DHT22;11029;47.820;10.534;2023-04-06T14:05:41;10.30;32.50
21734;DHT22;11029;47.820;10.534;2023-04-06T14:08:07;10.40;33.40
21734;DHT22;11029;47.820;10.534;2023-04-06T14:10:40;11.10;31.50
21734;DHT22;11029;47.820;10.534;2023-04-06T14:13:09;11.30;31.40
21734;DHT22;11029;47.820;10.534;2023-04-06T14:15:36;11.30;32.20
21734;DHT22;11029;47.820;10.534;2023-04-06T14:18:03;11.30;32.70
21734;DHT22;11029;47.820;10.534;2023-04-06T14:20:31;11.00;31.60
21734;DHT22;11029;47.820;10.534;2023-04-06T14:23:02;11.00;32.40
21734;DHT22;11029;47.820;10.534;2023-04-06T14:25:30;11.00;31.30
21734;DHT22;11029;47.820;10.534;2023-04-06T14:27:58;11.50;32.10
21734;DHT22;11029;47.820;10.534;2023-04-06T14:30:25;11.40;31.40
21734;DHT22;11029;47.820;10.534;2023-04-06T14:32:52;11.10;32.60
21734;DHT22;11029;47.820;10.534;2023-04-06T14:35:19;11.30;31.20
21734;DHT22;11029;47.820;10.534;2023-04-06T14:37:45;11.30;31.00
21734;DHT22;11029;47.820;10.534;2023-04-06T14:40:13;11.10;31.80
21734;DHT22;11029;47.820;10.534;2023-04-06T14:42:40;10.90;32.90
21734;DHT22;11029;47.820;10.534;2023-04-06T14:45:07;10.50;33.80
21734;DHT22;11029;47.820;10.534;2023-04-06T14:47:34;10.40;34.60
21734;DHT22;11029;47.820;10.534;2023-04-06T14:50:00;10.40;32.20
21734;DHT22;11029;47.820;10.534;2023-04-06T14:52:27;10.50;32.30
21734;DHT22;11029;47.820;10.534;2023-04-06T14:54:58;10.60;35.00
21734;DHT22;11029;47.820;10.534;2023-04-06T14:57:25;10.60;33.60
21734;DHT22;11029;47.820;10.534;2023-04-06T14:59:53;10.40;33.90
21734;DHT22;11029;47.820;10.534;2023-04-06T15:02:20;10.60;33.20
21734;DHT22;11029;47.820;10.534;2023-04-06T15:04:47;10.90;33.70
21734;DHT22;11029;47.820;10.534;2023-04-06T15:07:14;11.30;33.30
21734;DHT22;11029;47.820;10.534;2023-04-06T15:09:41;10.90;33.90
21734;DHT22;11029;47.820;10.534;2023-04-06T15:12:08;11.20;33.60
21734;DHT22;11029;47.820;10.534;2023-04-06T15:14:34;11.90;32.40
21734;DHT22;11029;47.820;10.534;2023-04-06T15:17:01;13.00;30.00
21734;DHT22;11029;47.820;10.534;2023-04-06T15:19:28;14.60;28.80
21734;DHT22;11029;47.820;10.534;2023-04-06T15:21:54;14.80;27.50
21734;DHT22;11029;47.820;10.534;2023-04-06T15:24:21;16.10;26.80
21734;DHT22;11029;47.820;10.534;2023-04-06T15:26:48;16.50;27.00
21734;DHT22;11029;47.820;10.534;2023-04-06T15:29:15;14.60;27.60
21734;DHT22;11029;47.820;10.534;2023-04-06T15:31:41;13.40;29.50
21734;DHT22;11029;47.820;10.534;2023-04-06T15:34:08;13.30;29.80
21734;DHT22;11029;47.820;10.534;2023-04-06T15:36:35;14.50;29.00
21734;DHT22;11029;47.820;10.534;2023-04-06T15:39:03;15.20;28.70